sensor_id;sensor_type;location;lat;lon;timestamp;P1;durP1;ratioP1;P2;durP2;ratioP2
52764;SDS011;38650;44.536;18.664;2023-03-16T00:00:46;30.20;;;19.85;;
52764;SDS011;38650;44.536;18.664;2023-03-16T00:03:12;34.15;;;24.02;;
52764;SDS011;38650;44.536;18.664;2023-03-16T00:05:51;32.13;;;20.88;;
52764;SDS011;38650;44.536;18.664;2023-03-16T00:08:17;30.08;;;21.63;;
52764;SDS011;38650;44.536;18.664;2023-03-16T00:10:43;27.52;;;19.67;;
52764;SDS011;38650;44.536;18.664;2023-03-16T00:13:17;26.55;;;17.00;;
52764;SDS011;38650;44.536;18.664;2023-03-16T00:15:54;23.92;;;15.80;;
52764;SDS011;38650;44.536;18.664;2023-03-16T00:18:22;24.80;;;17.98;;
52764;SDS011;38650;44.536;18.664;2023-03-16T00:20:56;26.90;;;17.48;;
52764;SDS011;38650;44.536;18.664;2023-03-16T00:23:23;19.95;;;14.57;;
52764;SDS011;38650;44.536;18.664;2023-03-16T00:25:53;26.73;;;17.10;;
52764;SDS011;38650;44.536;18.664;2023-03-16T00:28:23;23.23;;;16.08;;
52764;SDS011;38650;44.536;18.664;2023-03-16T00:30:50;30.20;;;17.92;;
52764;SDS011;38650;44.536;18.664;2023-03-16T00:33:16;21.70;;;15.07;;
52764;SDS011;38650;44.536;18.664;2023-03-16T00:35:45;32.13;;;21.38;;
52764;SDS011;38650;44.536;18.664;2023-03-16T00:38:13;24.58;;;17.17;;
52764;SDS011;38650;44.536;18.664;2023-03-16T00:40:43;23.35;;;15.38;;
52764;SDS011;38650;44.536;18.664;2023-03-16T00:43:09;22.45;;;14.32;;
52764;SDS011;38650;44.536;18.664;2023-03-16T00:45:35;18.42;;;13.02;;
52764;SDS011;38650;44.536;18.664;2023-03-16T00:48:01;14.50;;;11.30;;
52764;SDS011;38650;44.536;18.664;2023-03-16T00:50:27;15.63;;;11.50;;
52764;SDS011;38650;44.536;18.664;2023-03-16T00:52:52;13.23;;;10.13;;
52764;SDS011;38650;44.536;18.664;2023-03-16T00:55:19;11.68;;;9.27;;
52764;SDS011;38650;44.536;18.664;2023-03-16T00:57:45;14.68;;;10.23;;
52764;SDS011;38650;44.536;18.664;2023-03-16T01:00:11;14.07;;;9.57;;
52764;SDS011;38650;44.536;18.664;2023-03-16T01:02:40;17.85;;;11.85;;
52764;SDS011;38650;44.536;18.664;2023-03-16T01:05:09;16.60;;;11.85;;
52764;SDS011;38650;44.536;18.664;2023-03-16T01:07:36;20.55;;;13.65;;
52764;SDS011;38650;44.536;18.664;2023-03-16T01:10:03;21.17;;;13.80;;
52764;SDS011;38650;44.536;18.664;2023-03-16T01:12:30;15.38;;;10.75;;
52764;SDS011;38650;44.536;18.664;2023-03-16T01:14:55;14.63;;;10.15;;
52764;SDS011;38650;44.536;18.664;2023-03-16T01:17:21;13.32;;;9.63;;
52764;SDS011;38650;44.536;18.664;2023-03-16T01:19:47;13.18;;;8.93;;
52764;SDS011;38650;44.536;18.664;2023-03-16T01:22:14;15.13;;;10.52;;
52764;SDS011;38650;44.536;18.664;2023-03-16T01:24:40;19.20;;;12.95;;
52764;SDS011;38650;44.536;18.664;2023-03-16T01:27:08;16.92;;;11.10;;
52764;SDS011;38650;44.536;18.664;2023-03-16T01:29:35;17.80;;;11.05;;
52764;SDS011;38650;44.536;18.664;2023-03-16T01:32:02;14.40;;;10.98;;
52764;SDS011;38650;44.536;18.664;2023-03-16T01:34:28;13.52;;;9.05;;
52764;SDS011;38650;44.536;18.664;2023-03-16T01:36:54;13.50;;;8.55;;
52764;SDS011;38650;44.536;18.664;2023-03-16T01:39:20;12.38;;;8.95;;
52764;SDS011;38650;44.536;18.664;2023-03-16T01:41:46;13.57;;;9.25;;
52764;SDS011;38650;44.536;18.664;2023-03-16T01:44:13;13.13;;;8.57;;
52764;SDS011;38650;44.536;18.664;2023-03-16T01:46:41;10.27;;;7.13;;
52764;SDS011;38650;44.536;18.664;2023-03-16T01:49:09;12.60;;;8.43;;
52764;SDS011;38650;44.536;18.664;2023-03-16T01:54:44;16.80;;;11.88;;
52764;SDS011;38650;44.536;18.664;2023-03-16T01:57:17;43.28;;;26.30;;
52764;SDS011;38650;44.536;18.664;2023-03-16T02:02:20;25.10;;;16.60;;
52764;SDS011;38650;44.536;18.664;2023-03-16T02:04:49;20.77;;;13.02;;
52764;SDS011;38650;44.536;18.664;2023-03-16T02:07:29;17.00;;;11.30;;
52764;SDS011;38650;44.536;18.664;2023-03-16T02:09:59;14.55;;;10.20;;
52764;SDS011;38650;44.536;18.664;2023-03-16T02:12:26;13.77;;;9.40;;
52764;SDS011;38650;44.536;18.664;2023-03-16T02:14:53;12.35;;;8.27;;
52764;SDS011;38650;44.536;18.664;2023-03-16T02:17:26;11.38;;;7.60;;
52764;SDS011;38650;44.536;18.664;2023-03-16T02:22:43;9.18;;;5.47;;
52764;SDS011;38650;44.536;18.664;2023-03-16T02:25:11;10.23;;;7.15;;
52764;SDS011;38650;44.536;18.664;2023-03-16T02:30:14;10.27;;;6.75;;
52764;SDS011;38650;44.536;18.664;2023-03-16T02:32:41;15.70;;;10.27;;
52764;SDS011;38650;44.536;18.664;2023-03-16T02:35:10;13.90;;;8.27;;
52764;SDS011;38650;44.536;18.664;2023-03-16T02:37:37;9.40;;;6.60;;
52764;SDS011;38650;44.536;18.664;2023-03-16T02:40:15;9.80;;;7.10;;
52764;SDS011;38650;44.536;18.664;2023-03-16T02:42:48;13.95;;;9.07;;
52764;SDS011;38650;44.536;18.664;2023-03-16T02:45:22;12.75;;;8.82;;
52764;SDS011;38650;44.536;18.664;2023-03-16T02:47:52;10.25;;;7.25;;
52764;SDS011;38650;44.536;18.664;2023-03-16T02:50:19;7.28;;;4.70;;
52764;SDS011;38650;44.536;18.664;2023-03-16T02:52:45;6.38;;;4.20;;
52764;SDS011;38650;44.536;18.664;2023-03-16T02:55:12;8.85;;;5.60;;
52764;SDS011;38650;44.536;18.664;2023-03-16T02:57:38;7.38;;;4.15;;
52764;SDS011;38650;44.536;18.664;2023-03-16T03:00:04;10.82;;;6.35;;
52764;SDS011;38650;44.536;18.664;2023-03-16T03:02:37;8.25;;;5.40;;
52764;SDS011;38650;44.536;18.664;2023-03-16T03:05:02;8.20;;;5.68;;
52764;SDS011;38650;44.536;18.664;2023-03-16T03:07:28;10.27;;;6.47;;
52764;SDS011;38650;44.536;18.664;2023-03-16T03:09:56;7.63;;;5.07;;
52764;SDS011;38650;44.536;18.664;2023-03-16T03:12:22;4.97;;;3.10;;
52764;SDS011;38650;44.536;18.664;2023-03-16T03:14:48;8.02;;;3.20;;
52764;SDS011;38650;44.536;18.664;2023-03-16T03:17:13;7.03;;;3.85;;
52764;SDS011;38650;44.536;18.664;2023-03-16T03:19:39;6.40;;;3.58;;
52764;SDS011;38650;44.536;18.664;2023-03-16T03:22:05;7.20;;;3.97;;
52764;SDS011;38650;44.536;18.664;2023-03-16T03:24:32;7.65;;;4.88;;
52764;SDS011;38650;44.536;18.664;2023-03-16T03:26:58;7.55;;;4.50;;
52764;SDS011;38650;44.536;18.664;2023-03-16T03:29:25;7.28;;;4.28;;
52764;SDS011;38650;44.536;18.664;2023-03-16T03:31:59;9.20;;;4.65;;
52764;SDS011;38650;44.536;18.664;2023-03-16T03:34:26;6.18;;;4.43;;
52764;SDS011;38650;44.536;18.664;2023-03-16T03:36:52;8.30;;;5.78;;
52764;SDS011;38650;44.536;18.664;2023-03-16T03:39:18;10.98;;;6.93;;
52764;SDS011;38650;44.536;18.664;2023-03-16T03:41:44;12.73;;;7.53;;
52764;SDS011;38650;44.536;18.664;2023-03-16T03:44:09;6.75;;;4.30;;
52764;SDS011;38650;44.536;18.664;2023-03-16T03:46:35;8.75;;;6.35;;
52764;SDS011;38650;44.536;18.664;2023-03-16T03:49:01;9.85;;;5.68;;
52764;SDS011;38650;44.536;18.664;2023-03-16T03:51:29;6.68;;;4.57;;
52764;SDS011;38650;44.536;18.664;2023-03-16T03:53:56;5.18;;;3.80;;
52764;SDS011;38650;44.536;18.664;2023-03-16T03:56:22;7.78;;;4.28;;
52764;SDS011;38650;44.536;18.664;2023-03-16T03:58:48;7.35;;;4.25;;
52764;SDS011;38650;44.536;18.664;2023-03-16T04:01:14;6.68;;;4.43;;
52764;SDS011;38650;44.536;18.664;2023-03-16T04:03:40;10.98;;;8.07;;
52764;SDS011;38650;44.536;18.664;2023-03-16T04:06:06;18.65;;;12.98;;
52764;SDS011;38650;44.536;18.664;2023-03-16T04:08:32;18.00;;;13.10;;
52764;SDS011;38650;44.536;18.664;2023-03-16T04:10:58;20.20;;;14.70;;
52764;SDS011;38650;44.536;18.664;2023-03-16T04:13:25;20.05;;;13.27;;
52764;SDS011;38650;44.536;18.664;2023-03-16T04:15:57;14.07;;;9.77;;
52764;SDS011;38650;44.536;18.664;2023-03-16T04:18:24;9.95;;;7.07;;
52764;SDS011;38650;44.536;18.664;2023-03-16T04:20:50;9.23;;;6.28;;
52764;SDS011;38650;44.536;18.664;2023-03-16T04:23:19;9.27;;;5.00;;
52764;SDS011;38650;44.536;18.664;2023-03-16T04:25:46;17.52;;;11.15;;
52764;SDS011;38650;44.536;18.664;2023-03-16T04:28:11;24.70;;;18.33;;
52764;SDS011;38650;44.536;18.664;2023-03-16T04:30:37;17.17;;;12.75;;
52764;SDS011;38650;44.536;18.664;2023-03-16T04:33:03;23.55;;;16.25;;
52764;SDS011;38650;44.536;18.664;2023-03-16T04:35:29;20.17;;;14.32;;
52764;SDS011;38650;44.536;18.664;2023-03-16T04:37:56;33.08;;;22.27;;
52764;SDS011;38650;44.536;18.664;2023-03-16T04:40:22;44.75;;;30.88;;
52764;SDS011;38650;44.536;18.664;2023-03-16T04:42:48;34.33;;;24.63;;
52764;SDS011;38650;44.536;18.664;2023-03-16T04:45:14;43.08;;;27.27;;
52764;SDS011;38650;44.536;18.664;2023-03-16T04:47:42;26.25;;;19.58;;
52764;SDS011;38650;44.536;18.664;2023-03-16T04:50:08;27.17;;;17.85;;
52764;SDS011;38650;44.536;18.664;2023-03-16T04:52:34;28.70;;;19.25;;
52764;SDS011;38650;44.536;18.664;2023-03-16T04:55:00;24.25;;;17.05;;
52764;SDS011;38650;44.536;18.664;2023-03-16T04:57:26;20.23;;;14.05;;
52764;SDS011;38650;44.536;18.664;2023-03-16T04:59:52;29.17;;;18.55;;
52764;SDS011;38650;44.536;18.664;2023-03-16T05:02:17;24.35;;;15.82;;
52764;SDS011;38650;44.536;18.664;2023-03-16T05:04:44;18.25;;;12.18;;
52764;SDS011;38650;44.536;18.664;2023-03-16T05:07:10;22.15;;;13.82;;
52764;SDS011;38650;44.536;18.664;2023-03-16T05:09:35;18.45;;;11.88;;
52764;SDS011;38650;44.536;18.664;2023-03-16T05:12:01;21.50;;;15.13;;
52764;SDS011;38650;44.536;18.664;2023-03-16T05:14:27;23.35;;;14.23;;
52764;SDS011;38650;44.536;18.664;2023-03-16T05:16:53;17.13;;;11.82;;
52764;SDS011;38650;44.536;18.664;2023-03-16T05:19:19;19.55;;;12.55;;
52764;SDS011;38650;44.536;18.664;2023-03-16T05:21:44;20.40;;;13.07;;
52764;SDS011;38650;44.536;18.664;2023-03-16T05:24:10;23.20;;;14.57;;
52764;SDS011;38650;44.536;18.664;2023-03-16T05:26:38;38.50;;;23.38;;
52764;SDS011;38650;44.536;18.664;2023-03-16T05:29:04;29.90;;;17.33;;
52764;SDS011;38650;44.536;18.664;2023-03-16T05:31:30;18.60;;;12.73;;
52764;SDS011;38650;44.536;18.664;2023-03-16T05:34:00;16.65;;;11.27;;
52764;SDS011;38650;44.536;18.664;2023-03-16T05:36:26;15.52;;;12.32;;
52764;SDS011;38650;44.536;18.664;2023-03-16T05:38:52;16.88;;;11.48;;
52764;SDS011;38650;44.536;18.664;2023-03-16T05:41:18;18.75;;;14.55;;
52764;SDS011;38650;44.536;18.664;2023-03-16T05:43:45;25.55;;;17.70;;
52764;SDS011;38650;44.536;18.664;2023-03-16T05:46:11;23.63;;;16.02;;
52764;SDS011;38650;44.536;18.664;2023-03-16T05:48:37;23.95;;;16.77;;
52764;SDS011;38650;44.536;18.664;2023-03-16T05:51:03;21.17;;;14.20;;
52764;SDS011;38650;44.536;18.664;2023-03-16T05:53:33;19.83;;;12.32;;
52764;SDS011;38650;44.536;18.664;2023-03-16T05:55:59;17.05;;;10.50;;
52764;SDS011;38650;44.536;18.664;2023-03-16T05:58:26;20.50;;;12.55;;
52764;SDS011;38650;44.536;18.664;2023-03-16T06:00:52;23.45;;;15.98;;
52764;SDS011;38650;44.536;18.664;2023-03-16T06:03:19;35.40;;;20.92;;
52764;SDS011;38650;44.536;18.664;2023-03-16T06:05:46;29.42;;;18.67;;
52764;SDS011;38650;44.536;18.664;2023-03-16T06:08:12;27.20;;;17.27;;
52764;SDS011;38650;44.536;18.664;2023-03-16T06:10:39;40.90;;;27.13;;
52764;SDS011;38650;44.536;18.664;2023-03-16T06:13:05;77.75;;;49.25;;
52764;SDS011;38650;44.536;18.664;2023-03-16T06:15:30;65.63;;;46.35;;
52764;SDS011;38650;44.536;18.664;2023-03-16T06:17:56;67.88;;;46.88;;
52764;SDS011;38650;44.536;18.664;2023-03-16T06:20:22;80.60;;;54.25;;
52764;SDS011;38650;44.536;18.664;2023-03-16T06:22:48;68.47;;;45.00;;
52764;SDS011;38650;44.536;18.664;2023-03-16T06:25:14;225.63;;;107.18;;
52764;SDS011;38650;44.536;18.664;2023-03-16T06:27:40;110.70;;;62.15;;
52764;SDS011;38650;44.536;18.664;2023-03-16T06:30:07;84.00;;;55.08;;
52764;SDS011;38650;44.536;18.664;2023-03-16T06:32:36;69.57;;;46.88;;
52764;SDS011;38650;44.536;18.664;2023-03-16T06:35:02;42.58;;;29.52;;
52764;SDS011;38650;44.536;18.664;2023-03-16T06:37:29;33.63;;;26.75;;
52764;SDS011;38650;44.536;18.664;2023-03-16T06:39:55;63.22;;;45.85;;
52764;SDS011;38650;44.536;18.664;2023-03-16T06:42:21;64.28;;;47.22;;
52764;SDS011;38650;44.536;18.664;2023-03-16T06:44:49;48.35;;;37.40;;
52764;SDS011;38650;44.536;18.664;2023-03-16T06:47:15;30.85;;;25.77;;
52764;SDS011;38650;44.536;18.664;2023-03-16T06:49:41;19.95;;;17.55;;
52764;SDS011;38650;44.536;18.664;2023-03-16T06:52:07;17.75;;;14.25;;
52764;SDS011;38650;44.536;18.664;2023-03-16T06:54:34;13.07;;;10.80;;
52764;SDS011;38650;44.536;18.664;2023-03-16T06:57:01;5.03;;;4.40;;
52764;SDS011;38650;44.536;18.664;2023-03-16T06:59:27;5.35;;;4.85;;
52764;SDS011;38650;44.536;18.664;2023-03-16T07:01:53;4.82;;;3.28;;
52764;SDS011;38650;44.536;18.664;2023-03-16T07:04:19;3.65;;;2.50;;
52764;SDS011;38650;44.536;18.664;2023-03-16T07:06:45;2.15;;;1.95;;
52764;SDS011;38650;44.536;18.664;2023-03-16T07:09:11;3.72;;;1.90;;
52764;SDS011;38650;44.536;18.664;2023-03-16T07:11:37;3.97;;;2.05;;
52764;SDS011;38650;44.536;18.664;2023-03-16T07:14:03;2.58;;;2.00;;
52764;SDS011;38650;44.536;18.664;2023-03-16T07:16:29;2.38;;;1.83;;
52764;SDS011;38650;44.536;18.664;2023-03-16T07:18:56;5.25;;;2.80;;
52764;SDS011;38650;44.536;18.664;2023-03-16T07:21:22;3.10;;;2.20;;
52764;SDS011;38650;44.536;18.664;2023-03-16T07:23:48;2.55;;;1.70;;
52764;SDS011;38650;44.536;18.664;2023-03-16T07:26:14;2.17;;;1.80;;
52764;SDS011;38650;44.536;18.664;2023-03-16T07:28:39;2.15;;;1.55;;
52764;SDS011;38650;44.536;18.664;2023-03-16T07:31:05;2.42;;;1.85;;
52764;SDS011;38650;44.536;18.664;2023-03-16T07:33:32;2.70;;;1.60;;
52764;SDS011;38650;44.536;18.664;2023-03-16T07:35:58;3.03;;;1.83;;
52764;SDS011;38650;44.536;18.664;2023-03-16T07:38:28;2.13;;;1.58;;
52764;SDS011;38650;44.536;18.664;2023-03-16T07:40:54;2.72;;;1.60;;
52764;SDS011;38650;44.536;18.664;2023-03-16T07:43:20;2.70;;;1.58;;
52764;SDS011;38650;44.536;18.664;2023-03-16T07:45:49;1.90;;;1.45;;
52764;SDS011;38650;44.536;18.664;2023-03-16T07:48:16;1.50;;;1.40;;
52764;SDS011;38650;44.536;18.664;2023-03-16T07:50:42;1.40;;;1.20;;
52764;SDS011;38650;44.536;18.664;2023-03-16T07:53:08;3.67;;;1.70;;
52764;SDS011;38650;44.536;18.664;2023-03-16T07:55:34;2.47;;;1.30;;
52764;SDS011;38650;44.536;18.664;2023-03-16T07:58:01;1.90;;;1.33;;
52764;SDS011;38650;44.536;18.664;2023-03-16T08:00:29;3.03;;;1.38;;
52764;SDS011;38650;44.536;18.664;2023-03-16T08:02:54;1.75;;;1.15;;
52764;SDS011;38650;44.536;18.664;2023-03-16T08:05:21;2.28;;;1.80;;
52764;SDS011;38650;44.536;18.664;2023-03-16T08:07:47;1.90;;;1.20;;
52764;SDS011;38650;44.536;18.664;2023-03-16T08:10:13;2.17;;;1.20;;
52764;SDS011;38650;44.536;18.664;2023-03-16T08:12:39;3.45;;;1.58;;
52764;SDS011;38650;44.536;18.664;2023-03-16T08:15:05;1.38;;;1.02;;
52764;SDS011;38650;44.536;18.664;2023-03-16T08:17:32;1.77;;;1.00;;
52764;SDS011;38650;44.536;18.664;2023-03-16T08:19:58;2.17;;;1.35;;
52764;SDS011;38650;44.536;18.664;2023-03-16T08:22:24;2.08;;;1.50;;
52764;SDS011;38650;44.536;18.664;2023-03-16T08:24:50;1.90;;;1.40;;
52764;SDS011;38650;44.536;18.664;2023-03-16T08:27:16;2.05;;;1.40;;
52764;SDS011;38650;44.536;18.664;2023-03-16T08:29:43;2.42;;;1.85;;
52764;SDS011;38650;44.536;18.664;2023-03-16T08:32:09;2.72;;;1.55;;
52764;SDS011;38650;44.536;18.664;2023-03-16T08:34:36;3.13;;;1.40;;
52764;SDS011;38650;44.536;18.664;2023-03-16T08:37:03;2.80;;;1.58;;
52764;SDS011;38650;44.536;18.664;2023-03-16T08:39:30;2.45;;;1.27;;
52764;SDS011;38650;44.536;18.664;2023-03-16T08:41:57;1.42;;;1.10;;
52764;SDS011;38650;44.536;18.664;2023-03-16T08:44:23;2.17;;;1.40;;
52764;SDS011;38650;44.536;18.664;2023-03-16T08:46:50;1.45;;;1.23;;
52764;SDS011;38650;44.536;18.664;2023-03-16T08:49:16;1.70;;;1.40;;
52764;SDS011;38650;44.536;18.664;2023-03-16T08:51:44;2.53;;;1.38;;
52764;SDS011;38650;44.536;18.664;2023-03-16T08:54:11;1.83;;;1.25;;
52764;SDS011;38650;44.536;18.664;2023-03-16T08:56:36;1.63;;;1.35;;
52764;SDS011;38650;44.536;18.664;2023-03-16T08:59:02;2.75;;;1.50;;
52764;SDS011;38650;44.536;18.664;2023-03-16T09:01:28;2.08;;;1.30;;
52764;SDS011;38650;44.536;18.664;2023-03-16T09:03:54;1.80;;;1.50;;
52764;SDS011;38650;44.536;18.664;2023-03-16T09:06:19;1.60;;;1.30;;
52764;SDS011;38650;44.536;18.664;2023-03-16T09:08:46;2.25;;;1.17;;
52764;SDS011;38650;44.536;18.664;2023-03-16T09:11:13;2.22;;;1.10;;
52764;SDS011;38650;44.536;18.664;2023-03-16T09:13:41;1.38;;;1.20;;
52764;SDS011;38650;44.536;18.664;2023-03-16T09:16:07;3.40;;;2.17;;
52764;SDS011;38650;44.536;18.664;2023-03-16T09:18:34;3.65;;;2.70;;
52764;SDS011;38650;44.536;18.664;2023-03-16T09:21:04;2.75;;;2.30;;
52764;SDS011;38650;44.536;18.664;2023-03-16T09:23:32;2.40;;;1.90;;
52764;SDS011;38650;44.536;18.664;2023-03-16T09:25:59;4.55;;;3.50;;
52764;SDS011;38650;44.536;18.664;2023-03-16T09:28:27;5.10;;;3.80;;
52764;SDS011;38650;44.536;18.664;2023-03-16T09:30:55;3.78;;;3.13;;
52764;SDS011;38650;44.536;18.664;2023-03-16T09:33:24;5.80;;;3.03;;
52764;SDS011;38650;44.536;18.664;2023-03-16T09:35:53;4.03;;;2.30;;
52764;SDS011;38650;44.536;18.664;2023-03-16T09:38:21;2.47;;;1.80;;
52764;SDS011;38650;44.536;18.664;2023-03-16T09:40:54;2.33;;;1.48;;
52764;SDS011;38650;44.536;18.664;2023-03-16T09:43:31;1.83;;;1.25;;
52764;SDS011;38650;44.536;18.664;2023-03-16T09:48:33;2.47;;;2.03;;
52764;SDS011;38650;44.536;18.664;2023-03-16T09:51:02;1.75;;;1.50;;
52764;SDS011;38650;44.536;18.664;2023-03-16T09:53:38;2.38;;;1.55;;
52764;SDS011;38650;44.536;18.664;2023-03-16T09:56:05;2.05;;;1.63;;
52764;SDS011;38650;44.536;18.664;2023-03-16T09:58:36;2.25;;;1.48;;
52764;SDS011;38650;44.536;18.664;2023-03-16T10:06:25;2.65;;;2.05;;
52764;SDS011;38650;44.536;18.664;2023-03-16T10:08:54;2.70;;;1.70;;
52764;SDS011;38650;44.536;18.664;2023-03-16T10:11:39;2.35;;;1.50;;
52764;SDS011;38650;44.536;18.664;2023-03-16T10:14:21;2.15;;;1.20;;
52764;SDS011;38650;44.536;18.664;2023-03-16T10:19:33;2.13;;;1.50;;
52764;SDS011;38650;44.536;18.664;2023-03-16T10:24:51;1.25;;;1.10;;
52764;SDS011;38650;44.536;18.664;2023-03-16T10:27:27;2.38;;;1.65;;
52764;SDS011;38650;44.536;18.664;2023-03-16T10:29:56;2.10;;;1.80;;
52764;SDS011;38650;44.536;18.664;2023-03-16T10:32:22;2.35;;;1.70;;
52764;SDS011;38650;44.536;18.664;2023-03-16T10:35:40;2.55;;;1.95;;
52764;SDS011;38650;44.536;18.664;2023-03-16T10:37:57;2.13;;;1.80;;
52764;SDS011;38650;44.536;18.664;2023-03-16T10:40:29;2.15;;;1.35;;
52764;SDS011;38650;44.536;18.664;2023-03-16T10:43:03;2.38;;;1.48;;
52764;SDS011;38650;44.536;18.664;2023-03-16T10:45:30;2.80;;;1.50;;
52764;SDS011;38650;44.536;18.664;2023-03-16T10:48:32;3.30;;;1.70;;
52764;SDS011;38650;44.536;18.664;2023-03-16T10:50:56;2.77;;;1.50;;
52764;SDS011;38650;44.536;18.664;2023-03-16T10:53:26;2.10;;;1.40;;
52764;SDS011;38650;44.536;18.664;2023-03-16T10:55:58;1.98;;;1.33;;
52764;SDS011;38650;44.536;18.664;2023-03-16T10:58:29;1.83;;;1.40;;
52764;SDS011;38650;44.536;18.664;2023-03-16T11:00:57;1.77;;;1.27;;
52764;SDS011;38650;44.536;18.664;2023-03-16T11:03:27;3.00;;;1.60;;
52764;SDS011;38650;44.536;18.664;2023-03-16T11:06:02;2.72;;;1.65;;
52764;SDS011;38650;44.536;18.664;2023-03-16T11:08:33;1.67;;;1.38;;
52764;SDS011;38650;44.536;18.664;2023-03-16T11:11:09;1.52;;;1.10;;
52764;SDS011;38650;44.536;18.664;2023-03-16T11:13:44;1.42;;;0.90;;
52764;SDS011;38650;44.536;18.664;2023-03-16T11:21:40;2.45;;;2.00;;
52764;SDS011;38650;44.536;18.664;2023-03-16T11:24:20;2.15;;;1.95;;
52764;SDS011;38650;44.536;18.664;2023-03-16T11:26:57;2.03;;;1.63;;
52764;SDS011;38650;44.536;18.664;2023-03-16T11:32:00;2.15;;;1.40;;
52764;SDS011;38650;44.536;18.664;2023-03-16T11:34:30;1.50;;;1.35;;
52764;SDS011;38650;44.536;18.664;2023-03-16T11:47:34;1.77;;;1.17;;
52764;SDS011;38650;44.536;18.664;2023-03-16T11:50:31;1.85;;;1.50;;
52764;SDS011;38650;44.536;18.664;2023-03-16T11:55:56;1.90;;;1.58;;
52764;SDS011;38650;44.536;18.664;2023-03-16T12:03:49;1.48;;;1.15;;
52764;SDS011;38650;44.536;18.664;2023-03-16T12:15:31;1.52;;;1.40;;
52764;SDS011;38650;44.536;18.664;2023-03-16T12:18:21;1.95;;;1.30;;
52764;SDS011;38650;44.536;18.664;2023-03-16T12:21:08;2.47;;;1.50;;
52764;SDS011;38650;44.536;18.664;2023-03-16T12:23:49;1.65;;;1.25;;
52764;SDS011;38650;44.536;18.664;2023-03-16T12:26:25;1.25;;;1.13;;
52764;SDS011;38650;44.536;18.664;2023-03-16T12:28:54;2.05;;;1.17;;
52764;SDS011;38650;44.536;18.664;2023-03-16T12:37:13;1.20;;;1.10;;
52764;SDS011;38650;44.536;18.664;2023-03-16T12:40:00;1.70;;;1.15;;
52764;SDS011;38650;44.536;18.664;2023-03-16T12:50:48;2.47;;;1.10;;
52764;SDS011;38650;44.536;18.664;2023-03-16T12:53:28;1.23;;;1.10;;
52764;SDS011;38650;44.536;18.664;2023-03-16T12:56:05;1.95;;;1.35;;
52764;SDS011;38650;44.536;18.664;2023-03-16T12:58:34;1.15;;;1.00;;
52764;SDS011;38650;44.536;18.664;2023-03-16T13:01:04;2.30;;;1.20;;
52764;SDS011;38650;44.536;18.664;2023-03-16T13:03:35;1.65;;;1.33;;
52764;SDS011;38650;44.536;18.664;2023-03-16T13:06:01;1.70;;;1.10;;
52764;SDS011;38650;44.536;18.664;2023-03-16T13:08:27;1.52;;;0.95;;
52764;SDS011;38650;44.536;18.664;2023-03-16T13:11:10;2.63;;;1.00;;
52764;SDS011;38650;44.536;18.664;2023-03-16T13:16:27;1.75;;;1.10;;
52764;SDS011;38650;44.536;18.664;2023-03-16T13:18:54;1.20;;;0.93;;
52764;SDS011;38650;44.536;18.664;2023-03-16T13:26:46;1.15;;;0.85;;
52764;SDS011;38650;44.536;18.664;2023-03-16T13:29:24;1.35;;;0.75;;
52764;SDS011;38650;44.536;18.664;2023-03-16T13:31:52;1.52;;;0.70;;
52764;SDS011;38650;44.536;18.664;2023-03-16T13:36:48;1.83;;;1.48;;
52764;SDS011;38650;44.536;18.664;2023-03-16T13:39:20;2.33;;;1.85;;
52764;SDS011;38650;44.536;18.664;2023-03-16T13:42:13;1.90;;;1.70;;
52764;SDS011;38650;44.536;18.664;2023-03-16T13:44:43;1.80;;;1.30;;
52764;SDS011;38650;44.536;18.664;2023-03-16T13:47:12;1.30;;;1.02;;
52764;SDS011;38650;44.536;18.664;2023-03-16T13:49:43;1.45;;;0.98;;
52764;SDS011;38650;44.536;18.664;2023-03-16T13:52:14;1.73;;;1.00;;
52764;SDS011;38650;44.536;18.664;2023-03-16T13:54:48;1.90;;;1.70;;
52764;SDS011;38650;44.536;18.664;2023-03-16T13:57:15;1.60;;;1.42;;
52764;SDS011;38650;44.536;18.664;2023-03-16T13:59:45;2.70;;;1.80;;
52764;SDS011;38650;44.536;18.664;2023-03-16T14:02:20;1.42;;;1.33;;
52764;SDS011;38650;44.536;18.664;2023-03-16T14:04:47;1.50;;;1.40;;
52764;SDS011;38650;44.536;18.664;2023-03-16T14:07:16;1.30;;;1.20;;
52764;SDS011;38650;44.536;18.664;2023-03-16T14:09:45;1.30;;;1.15;;
52764;SDS011;38650;44.536;18.664;2023-03-16T14:12:15;1.50;;;1.33;;
52764;SDS011;38650;44.536;18.664;2023-03-16T14:14:45;1.75;;;1.30;;
52764;SDS011;38650;44.536;18.664;2023-03-16T14:17:17;1.38;;;1.17;;
52764;SDS011;38650;44.536;18.664;2023-03-16T14:19:48;4.40;;;1.77;;
52764;SDS011;38650;44.536;18.664;2023-03-16T14:22:21;1.73;;;1.33;;
52764;SDS011;38650;44.536;18.664;2023-03-16T14:24:56;1.95;;;1.30;;
52764;SDS011;38650;44.536;18.664;2023-03-16T14:27:31;2.10;;;1.90;;
52764;SDS011;38650;44.536;18.664;2023-03-16T14:30:21;2.15;;;1.88;;
52764;SDS011;38650;44.536;18.664;2023-03-16T14:32:58;1.85;;;1.73;;
52764;SDS011;38650;44.536;18.664;2023-03-16T14:35:30;2.08;;;1.80;;
52764;SDS011;38650;44.536;18.664;2023-03-16T14:38:17;1.90;;;1.35;;
52764;SDS011;38650;44.536;18.664;2023-03-16T14:40:55;1.60;;;1.33;;
52764;SDS011;38650;44.536;18.664;2023-03-16T14:43:26;1.33;;;0.90;;
52764;SDS011;38650;44.536;18.664;2023-03-16T14:45:57;1.33;;;1.08;;
52764;SDS011;38650;44.536;18.664;2023-03-16T14:48:24;1.38;;;1.05;;
52764;SDS011;38650;44.536;18.664;2023-03-16T14:50:55;2.35;;;1.08;;
52764;SDS011;38650;44.536;18.664;2023-03-16T14:53:23;1.67;;;0.80;;
52764;SDS011;38650;44.536;18.664;2023-03-16T14:55:52;1.15;;;1.02;;
52764;SDS011;38650;44.536;18.664;2023-03-16T14:58:19;1.63;;;1.38;;
52764;SDS011;38650;44.536;18.664;2023-03-16T15:00:45;2.45;;;1.60;;
52764;SDS011;38650;44.536;18.664;2023-03-16T15:03:11;2.67;;;1.65;;
52764;SDS011;38650;44.536;18.664;2023-03-16T15:05:41;1.70;;;1.25;;
52764;SDS011;38650;44.536;18.664;2023-03-16T15:08:43;1.52;;;1.33;;
52764;SDS011;38650;44.536;18.664;2023-03-16T15:11:08;1.73;;;1.50;;
52764;SDS011;38650;44.536;18.664;2023-03-16T15:13:34;1.60;;;1.20;;
52764;SDS011;38650;44.536;18.664;2023-03-16T15:16:08;2.65;;;1.77;;
52764;SDS011;38650;44.536;18.664;2023-03-16T15:18:36;2.85;;;2.08;;
52764;SDS011;38650;44.536;18.664;2023-03-16T15:21:12;1.98;;;1.77;;
52764;SDS011;38650;44.536;18.664;2023-03-16T15:23:44;3.45;;;2.78;;
52764;SDS011;38650;44.536;18.664;2023-03-16T15:26:14;9.77;;;7.22;;
52764;SDS011;38650;44.536;18.664;2023-03-16T15:28:42;5.82;;;4.68;;
52764;SDS011;38650;44.536;18.664;2023-03-16T15:31:09;13.55;;;8.63;;
52764;SDS011;38650;44.536;18.664;2023-03-16T15:33:36;8.95;;;6.50;;
52764;SDS011;38650;44.536;18.664;2023-03-16T15:36:05;4.00;;;3.38;;
52764;SDS011;38650;44.536;18.664;2023-03-16T15:38:38;3.78;;;3.10;;
52764;SDS011;38650;44.536;18.664;2023-03-16T15:41:08;3.13;;;2.65;;
52764;SDS011;38650;44.536;18.664;2023-03-16T15:43:35;2.80;;;2.03;;
52764;SDS011;38650;44.536;18.664;2023-03-16T15:46:02;1.90;;;1.70;;
52764;SDS011;38650;44.536;18.664;2023-03-16T15:48:29;3.63;;;1.88;;
52764;SDS011;38650;44.536;18.664;2023-03-16T15:50:56;1.40;;;1.30;;
52764;SDS011;38650;44.536;18.664;2023-03-16T15:55:55;1.60;;;1.50;;
52764;SDS011;38650;44.536;18.664;2023-03-16T15:58:26;1.73;;;1.63;;
52764;SDS011;38650;44.536;18.664;2023-03-16T16:00:53;2.05;;;1.80;;
52764;SDS011;38650;44.536;18.664;2023-03-16T16:03:21;2.20;;;1.60;;